Latest Weather Observations for Larapuna (Eddystone Point)

IDT60801

Issued at 8:01 pm EST Friday 29 May 2015 (issued every 30 minutes, with the page automatically refreshed every 10 minutes)

About weather observations | Map of weather stations | Latest weather observations for TAS | Other Formats
Station Details ID: 092045 Name: LARAPUNA (EDDYSTONE POINT) Lat: -40.99 Lon: 148.35 Height: 19.7 m
Data from the previous 72 hours. | See also: Recent months at Larapuna (Eddystone Point)
Date/Time
EST
Temp
°C
App
Temp
°C
Dew
Point
Rel
Hum
%
Delta-T
°C
Wind Press
QNH
hPa
Press
MSL
hPa
Rain
since 9 am
mm
Dir
 
Spd
km/h
Gust
km/h
Spd
kts
Gust
kts
29/08:00pm 10.0 5.5 7.1 82 1.4 WNW 20 32 11 17 1016.9 1016.9 0.0
29/07:30pm 9.6 6.4 6.9 83 1.3 WNW 13 17 7 9 1016.8 1016.8 0.0
29/07:00pm 10.0 6.0 6.7 80 1.5 WNW 17 24 9 13 1016.6 1016.6 0.0
29/06:30pm 9.9 6.0 7.0 82 1.4 NW 17 28 9 15 1016.3 1016.3 0.0
29/06:00pm 10.2 5.6 6.7 79 1.6 NW 20 26 11 14 1016.1 1016.1 0.0
29/05:30pm 10.6 4.6 6.9 78 1.8 NW 28 43 15 23 1016.1 1016.1 0.0
29/05:29pm 10.5 4.4 6.8 78 1.7 NW 28 43 15 23 1016.1 1016.1 0.0
29/05:00pm 10.8 6.6 7.3 79 1.7 WNW 19 24 10 13 1015.7 1015.7 0.0
29/04:30pm 11.3 7.0 7.2 76 2.0 W 19 22 10 12 1015.6 1015.6 0.0
29/04:00pm 12.1 5.1 5.9 66 2.9 WNW 32 44 17 24 1015.4 1015.4 0.0
29/03:30pm 12.6 6.2 5.3 61 3.4 NW 28 39 15 21 1015.0 1015.0 0.0
29/03:00pm 13.4 8.5 5.3 58 3.8 WNW 20 33 11 18 1014.9 1014.9 0.0
29/02:30pm 12.7 6.2 4.7 58 3.7 WNW 28 50 15 27 1014.9 1014.9 0.0
29/02:00pm 13.3 5.9 4.2 54 4.1 WNW 32 50 17 27 1014.7 1014.7 0.0
29/01:35pm 13.3 6.0 4.7 56 4.0 WNW 32 50 17 27 1014.8 1014.8 0.0
29/01:30pm 13.1 4.8 4.3 55 4.0 WNW 37 52 20 28 1014.8 1014.8 0.0
29/01:17pm 13.5 6.2 4.4 54 4.2 WNW 32 50 17 27 1014.7 1014.7 0.0
29/01:00pm 13.2 6.1 3.8 53 4.2 WNW 30 41 16 22 1014.8 1014.8 0.0
29/12:34pm 13.1 6.5 4.3 55 4.0 WNW 28 46 15 25 1014.9 1014.9 0.0
29/12:30pm 12.8 5.7 3.7 54 4.1 WNW 30 46 16 25 1014.8 1014.8 0.0
29/12:04pm 13.2 6.4 3.0 50 4.5 W 28 46 15 25 1014.6 1014.6 0.0
29/12:00pm 13.1 6.5 4.0 54 4.1 WNW 28 41 15 22 1014.6 1014.6 0.0
29/11:30am 12.2 5.0 3.2 54 4.0 WNW 30 48 16 26 1014.8 1014.8 0.0
29/11:29am 12.2 5.5 3.4 55 3.9 WNW 28 48 15 26 1014.9 1014.9 0.0
29/11:00am 11.2 4.8 3.0 57 3.6 WNW 26 41 14 22 1015.1 1015.1 0.0
29/10:35am 11.9 5.2 3.7 57 3.7 WNW 28 46 15 25 1015.0 1015.0 0.0
29/10:30am 11.8 5.4 3.3 56 3.7 WNW 26 41 14 22 1014.9 1014.9 0.0
29/10:10am 11.5 4.3 3.0 56 3.7 WNW 30 52 16 28 1014.6 1014.6 0.0
29/10:00am 11.7 5.0 3.7 58 3.6 W 28 39 15 21 1014.6 1014.6 0.0
29/09:32am 11.0 3.8 3.1 58 3.4 W 30 48 16 26 1014.6 1014.6 0.0
29/09:30am 11.0 3.9 3.5 60 3.3 W 30 41 16 22 1014.7 1014.7 0.0
29/09:00am 10.2 3.1 3.7 64 2.9 W 30 44 16 24 1014.7 1014.7 1.4
29/08:33am 9.6 1.9 3.6 66 2.6 W 33 52 18 28 1014.0 1014.0 1.4
29/08:30am 9.6 1.2 3.6 66 2.6 W 37 54 20 29 1013.9 1013.9 1.4
29/08:00am 9.2 0.7 3.2 66 2.6 WNW 37 50 20 27 1013.2 1013.2 1.4
29/07:30am 8.4 2.1 3.7 72 2.0 WNW 26 35 14 19 1013.3 1013.3 1.4
29/07:00am 7.9 1.9 3.4 73 1.9 W 24 35 13 19 1013.2 1013.2 1.4
29/06:30am 8.3 0.7 3.8 73 1.9 WNW 33 46 18 25 1012.7 1012.7 1.4
29/06:00am 8.3 0.9 3.9 74 1.9 WNW 32 44 17 24 1012.2 1012.2 1.4
29/05:30am 8.5 1.2 4.3 75 1.8 WNW 32 43 17 23 1012.0 1012.0 1.4
29/05:06am 8.6 0.6 4.0 73 2.0 W 35 54 19 29 1011.8 1011.8 1.4
29/05:00am 8.8 1.3 4.4 74 1.9 W 33 46 18 25 1011.7 1011.7 1.4
29/04:30am 8.7 1.6 5.4 80 1.5 WNW 32 43 17 23 1011.3 1011.3 1.4
29/04:00am 8.5 1.5 6.1 85 1.1 WNW 32 43 17 23 1011.0 1011.0 1.4
29/03:30am 8.4 1.5 6.4 87 0.9 WNW 32 41 17 22 1010.8 1010.8 1.4
29/03:00am 8.3 1.2 6.3 87 0.9 WNW 33 43 18 23 1010.4 1010.4 1.4
29/02:30am 9.0 0.5 7.0 87 0.9 WNW 41 61 22 33 1010.8 1010.8 1.2
29/02:00am 9.4 2.3 6.5 82 1.3 WNW 33 54 18 29 1010.1 1010.1 0.8
29/01:38am 10.6 3.7 6.6 76 1.9 WNW 32 54 17 29 1009.9 1009.9 0.6
29/01:30am 10.8 3.6 6.0 72 2.2 WNW 33 44 18 24 1009.5 1009.5 0.6
29/01:00am 10.9 4.4 6.5 74 2.1 WNW 30 46 16 25 1009.4 1009.4 0.6
29/12:30am 11.0 4.3 7.5 79 1.7 WNW 32 43 17 23 1009.8 1009.8 0.6
29/12:00am 11.0 5.0 8.6 85 1.2 NW 30 46 16 25 1009.9 1009.9 0.6
 
Date/Time
EST
Temp
°C
App
Temp
°C
Dew
Point
Rel
Hum
%
Delta-T
°C
Wind Press
QNH
hPa
Press
MSL
hPa
Rain
since 9 am
mm
Dir
 
Spd
km/h
Gust
km/h
Spd
kts
Gust
kts
28/11:30pm 11.0 5.1 8.9 87 1.0 WNW 30 39 16 21 1009.8 1009.8 0.6
28/11:00pm 10.6 5.4 8.9 89 0.8 WNW 26 35 14 19 1009.8 1009.8 0.6
28/10:32pm 11.0 4.6 8.6 85 1.2 WNW 32 50 17 27 1009.7 1009.7 0.4
28/10:30pm 11.0 4.4 8.4 84 1.3 WNW 33 50 18 27 1009.6 1009.6 0.4
28/10:00pm 11.4 5.7 8.4 82 1.5 NW 28 41 15 22 1009.5 1009.5 0.4
28/09:30pm 11.8 5.4 8.6 81 1.6 WNW 32 44 17 24 1009.3 1009.3 0.4
28/09:00pm 12.0 6.3 9.7 86 1.2 WNW 30 44 16 24 1009.1 1009.1 0.4
28/08:30pm 12.3 6.2 10.4 88 1.0 WNW 33 46 18 25 1009.3 1009.3 0.4
28/08:00pm 12.4 7.0 10.8 90 0.8 NW 30 48 16 26 1009.4 1009.4 0.4
28/07:31pm 13.0 7.1 10.4 84 1.3 WNW 32 50 17 27 1009.4 1009.4 0.0
28/07:30pm 13.1 7.2 10.5 84 1.4 WNW 32 44 17 24 1009.4 1009.4 0.0
28/07:00pm 15.0 9.3 11.0 77 2.1 NW 32 52 17 28 1009.2 1009.2 0.0
28/06:30pm 15.0 7.8 10.6 75 2.3 NW 39 54 21 29 1008.6 1008.6 0.0
28/06:00pm 15.1 7.1 10.3 73 2.5 NW 43 57 23 31 1008.8 1008.8 0.0
28/05:30pm 15.0 7.8 11.8 81 1.7 NNW 41 54 22 29 1008.7 1008.7 0.0
28/05:12pm 15.1 8.2 11.5 79 1.9 NNW 39 57 21 31 1008.9 1008.9 0.0
28/05:00pm 15.3 8.3 11.1 76 2.2 NNW 39 54 21 29 1008.9 1008.9 0.0
28/04:38pm 15.3 7.4 10.7 74 2.4 NNW 43 61 23 33 1008.8 1008.8 0.0
28/04:30pm 15.4 7.3 10.6 73 2.5 NNW 44 61 24 33 1008.7 1008.7 0.0
28/04:28pm 15.3 7.2 10.1 71 2.7 NNW 43 61 23 33 1008.7 1008.7 0.0
28/04:00pm 15.1 7.9 10.5 74 2.4 NNW 39 50 21 27 1009.0 1009.0 0.0
28/03:30pm 14.9 7.7 10.7 76 2.2 NNW 39 57 21 31 1009.4 1009.4 0.0
28/03:04pm 15.3 9.6 11.1 76 2.2 NNW 32 50 17 27 1010.0 1010.0 0.0
28/03:00pm 15.3 9.4 11.3 77 2.1 NNW 33 48 18 26 1010.0 1010.0 0.0
28/02:47pm 15.0 8.8 11.4 79 1.9 NNW 35 56 19 30 1010.2 1010.2 0.0
28/02:30pm 14.9 8.5 12.0 83 1.6 NNW 37 50 20 27 1010.1 1010.1 0.0
28/02:00pm 15.1 8.7 11.9 81 1.7 NNW 37 52 20 28 1010.4 1010.4 0.0
28/01:30pm 15.2 9.2 12.0 81 1.7 NNW 35 48 19 26 1010.6 1010.6 0.0
28/01:00pm 15.1 8.3 12.1 82 1.6 NNW 39 48 21 26 1011.1 1011.1 0.0
28/12:30pm 15.1 8.7 12.1 82 1.6 NNW 37 48 20 26 1011.4 1011.4 0.0
28/12:00pm 15.3 8.2 12.2 82 1.7 NNW 41 52 22 28 1012.0 1012.0 0.0
28/11:30am 15.1 9.1 12.2 83 1.6 NNW 35 46 19 25 1012.5 1012.5 0.0
28/11:00am 15.5 10.0 12.6 83 1.6 NNW 33 44 18 24 1013.0 1013.0 0.0
28/10:30am 15.0 9.8 12.7 86 1.3 NNW 32 41 17 22 1013.7 1013.7 0.0
28/10:00am 14.4 9.7 12.1 86 1.2 NNW 28 39 15 21 1013.9 1013.9 0.0
28/09:30am 14.0 9.1 12.4 90 0.9 NNW 30 41 16 22 1014.1 1014.1 0.0
28/09:00am 13.7 8.7 12.3 91 0.8 NNW 30 43 16 23 1014.2 1014.2 2.4
28/08:30am 13.6 7.3 12.2 91 0.8 NNW 37 48 20 26 1014.2 1014.2 2.2
28/08:22am 13.7 7.0 12.3 91 0.8 NNW 39 57 21 31 1014.3 1014.3 2.2
28/08:00am 14.7 8.4 12.4 86 1.3 NNW 37 48 20 26 1014.0 1014.0 1.4
28/07:30am 14.4 8.9 12.3 87 1.1 NNW 33 43 18 23 1013.8 1013.8 1.4
28/07:00am 14.2 10.0 12.4 89 1.0 NNW 26 32 14 17 1014.1 1014.1 1.4
28/06:30am 14.3 10.4 12.2 87 1.1 NNW 24 32 13 17 1014.1 1014.1 1.4
28/06:00am 14.5 10.2 12.0 85 1.4 NNW 26 35 14 19 1014.0 1014.0 1.4
28/05:30am 14.3 9.1 11.6 84 1.4 NNW 30 41 16 22 1013.8 1013.8 1.4
28/05:00am 14.2 8.4 11.5 84 1.4 NNW 33 43 18 23 1013.8 1013.8 1.4
28/04:30am 14.4 8.9 11.7 84 1.5 NW 32 44 17 24 1014.0 1014.0 1.4
28/04:00am 14.3 8.8 12.3 88 1.1 NNW 33 46 18 25 1014.1 1014.1 1.4
28/03:30am 14.0 9.1 12.6 91 0.8 NNW 30 41 16 22 1014.3 1014.3 1.4
28/03:00am 14.0 10.3 12.6 91 0.8 NNW 24 33 13 18 1014.5 1014.5 1.4
28/02:30am 14.1 9.6 12.7 91 0.8 NNW 28 35 15 19 1014.8 1014.8 1.4
28/02:00am 14.5 9.5 12.2 86 1.2 NNW 30 39 16 21 1015.0 1015.0 1.2
28/01:30am 14.6 9.2 12.1 85 1.4 NNW 32 41 17 22 1015.0 1015.0 1.2
28/01:00am 14.8 8.7 11.8 82 1.6 N 35 44 19 24 1015.2 1015.2 1.2
28/12:30am 14.7 8.1 11.5 81 1.7 N 37 46 20 25 1015.3 1015.3 1.2
28/12:00am 14.4 8.8 11.6 83 1.5 N 32 37 17 20 1015.5 1015.5 1.2
 
Date/Time
EST
Temp
°C
App
Temp
°C
Dew
Point
Rel
Hum
%
Delta-T
°C
Wind Press
QNH
hPa
Press
MSL
hPa
Rain
since 9 am
mm
Dir
 
Spd
km/h
Gust
km/h
Spd
kts
Gust
kts
27/11:30pm 14.3 9.1 11.6 84 1.4 N 30 35 16 19 1015.9 1015.9 1.2
27/11:00pm 14.4 8.6 11.4 82 1.6 N 33 43 18 23 1016.1 1016.1 1.2
27/10:30pm 14.0 10.0 11.7 86 1.2 NNW 24 30 13 16 1016.3 1016.3 1.2
27/10:00pm 13.8 10.5 11.5 86 1.2 NNW 20 28 11 15 1016.3 1016.3 1.2
27/09:30pm 14.0 10.3 11.5 85 1.3 NNW 22 28 12 15 1016.6 1016.6 1.2
27/09:00pm 14.1 8.1 10.9 81 1.7 NNW 33 39 18 21 1016.7 1016.7 1.2
27/08:30pm 14.0 9.4 11.2 83 1.5 NNW 26 32 14 17 1017.0 1017.0 1.2
27/08:00pm 14.0 10.2 11.3 84 1.4 N 22 30 12 16 1017.0 1017.0 1.2
27/07:30pm 13.7 10.4 11.7 88 1.1 N 20 24 11 13 1017.1 1017.1 1.2
27/07:00pm 13.8 11.2 12.0 89 1.0 N 17 19 9 10 1017.2 1017.2 1.2
27/06:30pm 13.6 11.0 12.0 90 0.9 N 17 20 9 11 1017.1 1017.1 1.2
27/06:00pm 13.3 11.1 12.0 92 0.7 N 15 19 8 10 1017.0 1017.0 1.2
27/05:30pm 13.0 11.1 11.7 92 0.7 NNW 13 17 7 9 1017.0 1017.0 1.2
27/05:00pm 13.3 10.0 11.5 89 1.0 NNW 20 28 11 15 1017.0 1017.0 0.4
27/04:30pm 14.2 9.5 10.6 79 1.9 NNW 26 33 14 18 1017.0 1017.0 0.2
27/04:00pm 14.2 9.3 11.4 83 1.5 N 28 33 15 18 1016.9 1016.9 0.2
27/03:30pm 14.2 9.7 11.4 83 1.5 NNW 26 32 14 17 1017.0 1017.0 0.2
27/03:00pm 14.7 9.4 11.3 80 1.8 NNW 30 37 16 20 1017.1 1017.1 0.2
27/02:30pm 14.3 8.6 11.1 81 1.7 NNW 32 41 17 22 1016.9 1016.9 0.2
27/02:00pm 14.4 9.0 11.0 80 1.8 NNW 30 39 16 21 1017.3 1017.3 0.2
27/01:30pm 14.2 9.1 10.6 79 1.9 NNW 28 35 15 19 1017.6 1017.6 0.2
27/01:00pm 14.2 9.5 10.8 80 1.8 NNW 26 35 14 19 1018.0 1018.0 0.2
27/12:30pm 13.9 8.7 10.3 79 1.9 NNW 28 33 15 18 1018.3 1018.3 0.2
27/12:00pm 14.2 8.8 10.8 80 1.8 N 30 35 16 19 1018.8 1018.8 0.2
27/11:30am 14.1 9.0 10.7 80 1.8 N 28 37 15 20 1019.4 1019.4 0.2
27/11:00am 13.9 8.9 11.1 83 1.5 N 28 37 15 20 1019.9 1019.9 0.0
27/10:30am 14.8 9.5 11.2 79 1.9 N 30 35 16 19 1020.2 1020.2 0.0
27/10:00am 13.5 8.9 10.9 84 1.4 N 26 32 14 17 1020.4 1020.4 0.0
27/09:30am 13.7 8.6 10.7 82 1.6 N 28 33 15 18 1020.8 1020.8 0.0
27/09:00am 13.0 8.3 10.7 86 1.2 NNW 26 33 14 18 1020.9 1020.9 0.2
27/08:30am 12.0 9.1 10.9 93 0.6 NNW 17 22 9 12 1020.8 1020.8 0.2
27/08:00am 11.1 8.0 10.2 94 0.5 NNW 17 20 9 11 1020.9 1020.9 0.2
27/07:30am 10.9 8.1 10.1 95 0.4 NW 15 20 8 11 1020.9 1020.9 0.2
27/07:00am 10.3 8.1 9.5 95 0.4 NNW 11 11 6 6 1020.8 1020.8 0.2
27/06:30am 10.4 7.9 9.6 95 0.4 NNW 13 15 7 8 1021.0 1021.0 0.2
27/06:00am 10.2 7.6 9.4 95 0.4 NW 13 15 7 8 1021.3 1021.3 0.2
27/05:30am 10.5 8.0 9.7 95 0.4 NNW 13 15 7 8 1021.4 1021.4 0.2
27/05:00am 10.6 7.7 9.8 95 0.4 NW 15 17 8 9 1021.7 1021.7 0.2
27/04:30am 10.4 7.9 9.6 95 0.4 NW 13 15 7 8 1021.9 1021.9 0.2
27/04:00am 10.3 7.7 9.5 95 0.4 NW 13 13 7 7 1022.0 1022.0 0.0
27/03:30am 10.5 8.4 9.6 94 0.5 NW 11 13 6 7 1022.2 1022.2 0.0
27/03:00am 10.1 7.5 9.2 94 0.4 NW 13 13 7 7 1022.6 1022.6 0.0
27/02:30am 9.7 7.7 8.8 94 0.4 NW 9 11 5 6 1022.7 1022.7 0.0
27/02:00am 9.3 6.8 8.4 94 0.4 NNW 11 13 6 7 1023.0 1023.0 0.0
27/01:30am 9.0 6.1 8.2 95 0.4 WNW 13 13 7 7 1023.3 1023.3 0.0
27/01:00am 7.9 4.7 7.0 94 0.4 WNW 13 15 7 8 1023.4 1023.4 0.0
27/12:30am 8.7 6.5 7.8 94 0.4 NW 9 11 5 6 1023.5 1023.5 0.0
27/12:00am 9.8 8.4 8.9 94 0.4 W 6 9 3 5 1023.7 1023.7 0.0
 
Date/Time
EST
Temp
°C
App
Temp
°C
Dew
Point
Rel
Hum
%
Delta-T
°C
Wind Press
QNH
hPa
Press
MSL
hPa
Rain
since 9 am
mm
Dir
 
Spd
km/h
Gust
km/h
Spd
kts
Gust
kts
26/11:30pm 9.1 7.5 8.0 93 0.5 SSW 6 7 3 4 1023.7 1023.7 0.0
26/11:00pm 8.8 7.0 7.9 94 0.4 SW 7 11 4 6 1024.0 1024.0 0.0
26/10:30pm 8.4 6.1 7.3 93 0.5 W 9 11 5 6 1024.3 1024.3 0.0
26/10:00pm 8.5 5.0 7.3 92 0.6 NW 15 15 8 8 1024.6 1024.6 0.0
26/09:30pm 10.0 8.4 8.8 92 0.6 N 7 13 4 7 1024.7 1024.7 0.0
26/09:00pm 10.5 9.0 9.1 91 0.7 SW 7 9 4 5 1024.7 1024.7 0.0
26/08:30pm 10.5 8.6 9.1 91 0.7 SW 9 9 5 5 1024.8 1024.8 0.0

Other Formats:

Comma delimited format used in spreadsheet applications
http://www.bom.gov.au/fwo/IDT60801/IDT60801.94983.axf

JavaScript Object Notation format (JSON) in row-major order
http://www.bom.gov.au/fwo/IDT60801/IDT60801.94983.json